createdAt,value
2024-03-30T00:00:07.332Z,68.83
2024-03-30T00:03:24.148Z,68.96
2024-03-30T00:06:01.436Z,69.12
2024-03-30T00:08:32.988Z,69.23
2024-03-30T00:11:04.996Z,69.30
2024-03-30T00:13:36.916Z,69.27
2024-03-30T00:16:10.768Z,69.34
2024-03-30T00:18:44.265Z,69.54
2024-03-30T00:21:16.213Z,69.77
2024-03-30T00:23:47.664Z,69.61
2024-03-30T00:26:17.987Z,69.60
2024-03-30T00:28:49.495Z,69.62
2024-03-30T00:31:24.791Z,69.69
2024-03-30T00:33:56.736Z,69.81
2024-03-30T00:36:27.151Z,69.88
2024-03-30T00:39:01.543Z,69.84
2024-03-30T00:41:34.053Z,69.75
2024-03-30T00:44:04.771Z,69.84
2024-03-30T00:46:36.863Z,69.83
2024-03-30T00:49:07.106Z,69.87
2024-03-30T00:51:38.658Z,69.59
2024-03-30T00:54:09.141Z,69.81
2024-03-30T00:56:41.157Z,69.83
2024-03-30T00:59:11.522Z,69.97
2024-03-30T01:01:42.912Z,70.00
2024-03-30T01:04:13.395Z,69.95
2024-03-30T01:06:44.912Z,69.86
2024-03-30T01:09:15.274Z,69.90
2024-03-30T01:11:47.182Z,69.94
2024-03-30T01:14:19.362Z,70.00
2024-03-30T01:16:52.122Z,70.19
2024-03-30T01:19:23.069Z,70.10
2024-03-30T01:21:54.812Z,69.97
2024-03-30T01:24:25.896Z,69.94
2024-03-30T01:26:58.567Z,69.97
2024-03-30T01:29:28.846Z,69.91
2024-03-30T01:32:00.524Z,69.82
2024-03-30T01:34:33.718Z,69.82
2024-03-30T01:37:05.110Z,69.67
2024-03-30T01:39:35.536Z,69.63
2024-03-30T01:42:06.943Z,69.54
2024-03-30T01:44:37.356Z,69.51
2024-03-30T01:47:09.796Z,69.48
2024-03-30T01:49:40.195Z,69.57
2024-03-30T01:52:11.570Z,69.66
2024-03-30T01:54:41.922Z,69.60
2024-03-30T01:57:15.225Z,69.67
2024-03-30T01:59:45.625Z,69.79
2024-03-30T02:02:17.860Z,69.78
2024-03-30T02:04:48.175Z,69.80
2024-03-30T02:07:19.597Z,69.62
2024-03-30T02:09:50.832Z,69.78
2024-03-30T02:12:22.877Z,69.71
2024-03-30T02:14:52.994Z,69.67
2024-03-30T02:17:24.413Z,69.72
2024-03-30T02:19:58.682Z,69.66
2024-03-30T02:22:30.692Z,69.52
2024-03-30T02:25:01.013Z,69.64
2024-03-30T02:27:32.771Z,69.71
2024-03-30T02:30:03.586Z,69.56
2024-03-30T02:32:35.132Z,69.84
2024-03-30T02:35:05.675Z,69.84
2024-03-30T02:37:37.219Z,69.83
2024-03-30T02:40:09.009Z,69.75
2024-03-30T02:42:41.158Z,69.64
2024-03-30T02:45:12.436Z,69.61
2024-03-30T02:47:44.530Z,69.69
2024-03-30T02:50:14.813Z,69.72
2024-03-30T02:52:46.164Z,69.77
2024-03-30T02:55:16.497Z,69.90
2024-03-30T02:57:48.053Z,69.94
2024-03-30T03:00:18.835Z,69.96
2024-03-30T03:02:53.957Z,69.88
2024-03-30T03:05:26.487Z,69.84
2024-03-30T03:07:56.797Z,70.00
2024-03-30T03:10:28.256Z,69.99
2024-03-30T03:12:58.423Z,70.01
2024-03-30T03:15:29.881Z,69.92
2024-03-30T03:18:00.133Z,70.03
2024-03-30T03:20:31.663Z,70.10
2024-03-30T03:23:01.907Z,70.02
2024-03-30T03:25:33.651Z,70.06
2024-03-30T03:28:04.290Z,70.01
2024-03-30T03:30:35.835Z,70.11
2024-03-30T03:33:06.187Z,70.07
2024-03-30T03:35:37.619Z,70.09
2024-03-30T03:38:08.931Z,69.98
2024-03-30T03:40:40.620Z,69.98
2024-03-30T03:43:11.059Z,70.01
2024-03-30T03:45:47.181Z,69.99
2024-03-30T03:48:18.771Z,69.99
2024-03-30T03:50:48.936Z,69.92
2024-03-30T03:53:20.573Z,69.96
2024-03-30T03:55:50.916Z,69.91
2024-03-30T03:58:22.560Z,69.92
2024-03-30T04:00:53.067Z,69.86
2024-03-30T04:03:24.585Z,69.85
2024-03-30T04:05:55.032Z,69.86
2024-03-30T04:08:27.013Z,69.95
2024-03-30T04:11:06.804Z,69.94
2024-03-30T04:13:38.561Z,69.93
2024-03-30T04:16:08.834Z,69.90
2024-03-30T04:18:40.306Z,69.93
2024-03-30T04:21:10.609Z,69.94
2024-03-30T04:23:43.716Z,69.88
2024-03-30T04:26:18.468Z,70.01
2024-03-30T04:28:49.907Z,69.98
2024-03-30T04:31:20.093Z,69.96
2024-03-30T04:33:51.536Z,69.84
2024-03-30T04:36:21.944Z,69.81
2024-03-30T04:38:53.425Z,69.81
2024-03-30T04:41:23.770Z,69.69
2024-03-30T04:43:55.361Z,69.63
2024-03-30T04:46:25.697Z,69.56
2024-03-30T04:48:57.266Z,69.52
2024-03-30T04:51:27.352Z,69.38
2024-03-30T04:53:58.913Z,69.26
2024-03-30T04:56:29.276Z,69.09
2024-03-30T04:59:00.910Z,68.84
2024-03-30T05:01:31.234Z,68.60
2024-03-30T05:04:03.479Z,68.34
2024-03-30T05:06:33.776Z,68.01
2024-03-30T05:09:05.397Z,67.11
2024-03-30T05:11:35.775Z,65.86
2024-03-30T05:14:07.394Z,64.44
2024-03-30T05:16:40.432Z,63.48
2024-03-30T05:19:32.024Z,63.29
2024-03-30T05:22:03.420Z,62.79
2024-03-30T05:24:33.863Z,62.38
2024-03-30T05:27:05.462Z,62.15
2024-03-30T05:29:35.720Z,62.11
2024-03-30T05:32:07.252Z,62.16
2024-03-30T05:34:37.621Z,62.08
2024-03-30T05:37:09.282Z,61.98
2024-03-30T05:39:39.774Z,62.05
2024-03-30T05:42:13.419Z,61.77
2024-03-30T05:44:48.487Z,61.54
2024-03-30T05:47:20.053Z,61.42
2024-03-30T05:49:50.536Z,61.64
2024-03-30T05:52:22.043Z,61.72
2024-03-30T05:54:52.252Z,61.88
2024-03-30T05:57:23.831Z,62.04
2024-03-30T05:59:54.155Z,62.20
2024-03-30T06:02:26.271Z,62.40
2024-03-30T06:04:56.701Z,62.28
2024-03-30T06:07:28.219Z,62.22
2024-03-30T06:09:58.660Z,61.52
2024-03-30T06:12:30.753Z,60.27
2024-03-30T06:15:01.571Z,59.51
2024-03-30T06:17:37.054Z,59.44
2024-03-30T06:20:12.460Z,59.41
2024-03-30T06:22:44.394Z,58.92
2024-03-30T06:25:14.952Z,58.70
2024-03-30T06:27:46.521Z,57.78
2024-03-30T06:30:17.448Z,56.60
2024-03-30T06:32:49.067Z,56.03
2024-03-30T06:35:20.568Z,55.98
2024-03-30T06:37:52.106Z,56.20
2024-03-30T06:40:41.062Z,56.58
2024-03-30T06:43:31.737Z,56.32
2024-03-30T06:46:04.234Z,56.08
2024-03-30T06:48:34.479Z,55.64
2024-03-30T06:51:06.276Z,55.24
2024-03-30T06:53:36.660Z,54.96
2024-03-30T06:56:08.255Z,54.71
2024-03-30T06:58:38.578Z,54.04
2024-03-30T07:01:10.560Z,53.24
2024-03-30T07:03:41.296Z,52.84
2024-03-30T07:06:13.255Z,52.66
2024-03-30T07:08:43.747Z,52.35
2024-03-30T07:11:15.560Z,51.85
2024-03-30T07:13:47.078Z,52.08
2024-03-30T07:16:18.659Z,51.53
2024-03-30T07:18:50.551Z,51.46
2024-03-30T07:21:22.012Z,51.05
2024-03-30T07:23:52.432Z,51.15
2024-03-30T07:26:23.847Z,50.44
2024-03-30T07:28:54.258Z,50.26
2024-03-30T07:31:27.038Z,49.84
2024-03-30T07:33:57.454Z,49.68
2024-03-30T07:36:28.813Z,49.47
2024-03-30T07:38:59.195Z,49.46
2024-03-30T07:41:30.729Z,49.11
2024-03-30T07:44:01.147Z,48.09
2024-03-30T07:46:32.564Z,48.46
2024-03-30T07:49:02.960Z,48.33
2024-03-30T07:51:34.364Z,48.22
2024-03-30T07:54:04.788Z,48.27
2024-03-30T07:56:36.198Z,48.24
2024-03-30T07:59:06.978Z,48.15
2024-03-30T08:01:38.355Z,47.25
2024-03-30T08:04:09.110Z,46.66
2024-03-30T08:06:40.535Z,46.14
2024-03-30T08:09:11.034Z,46.51
2024-03-30T08:11:44.509Z,46.22
2024-03-30T08:14:14.809Z,46.03
2024-03-30T08:16:46.627Z,45.65
2024-03-30T08:19:18.397Z,45.22
2024-03-30T08:21:51.324Z,45.35
2024-03-30T08:24:21.847Z,44.66
2024-03-30T08:26:53.377Z,44.44
2024-03-30T08:29:23.873Z,44.25
2024-03-30T08:31:56.158Z,44.16
2024-03-30T08:34:26.636Z,43.94
2024-03-30T08:36:58.252Z,44.07
2024-03-30T08:39:29.160Z,44.34
2024-03-30T08:42:00.811Z,44.30
2024-03-30T08:44:31.537Z,43.98
2024-03-30T08:47:03.387Z,43.30
2024-03-30T08:49:34.041Z,42.93
2024-03-30T08:52:06.393Z,43.81
2024-03-30T08:54:36.699Z,44.50
2024-03-30T08:57:08.148Z,44.29
2024-03-30T08:59:39.024Z,44.26
2024-03-30T09:02:10.588Z,43.78
2024-03-30T09:04:40.949Z,43.10
2024-03-30T09:07:12.403Z,42.68
2024-03-30T09:09:42.877Z,43.24
2024-03-30T09:12:15.641Z,43.23
2024-03-30T09:14:46.092Z,43.32
2024-03-30T09:17:17.533Z,43.66
2024-03-30T09:19:47.917Z,44.06
2024-03-30T09:22:19.444Z,44.11
2024-03-30T09:24:50.966Z,43.69
2024-03-30T09:27:24.432Z,43.64
2024-03-30T09:29:54.548Z,43.09
2024-03-30T09:32:26.082Z,43.26
2024-03-30T09:34:56.522Z,42.75
2024-03-30T09:37:27.989Z,42.57
2024-03-30T09:39:58.127Z,42.71
2024-03-30T09:42:33.681Z,42.32
2024-03-30T09:45:05.445Z,41.80
2024-03-30T09:47:35.668Z,41.50
2024-03-30T09:50:08.902Z,40.96
2024-03-30T09:52:40.699Z,41.43
2024-03-30T09:55:16.061Z,40.59
2024-03-30T09:57:49.353Z,40.72
2024-03-30T10:00:19.928Z,40.66
2024-03-30T10:02:51.866Z,40.60
2024-03-30T10:05:32.453Z,39.91
2024-03-30T10:08:10.074Z,39.98
2024-03-30T10:10:40.512Z,39.71
2024-03-30T10:13:21.607Z,39.95
2024-03-30T10:15:53.689Z,39.26
2024-03-30T10:18:24.296Z,38.68
2024-03-30T10:20:56.152Z,39.01
2024-03-30T10:23:26.567Z,39.10
2024-03-30T10:26:00.486Z,39.16
2024-03-30T10:28:30.807Z,39.14
2024-03-30T10:31:02.397Z,39.09
2024-03-30T10:33:33.173Z,38.38
2024-03-30T10:36:05.018Z,38.41
2024-03-30T10:38:38.519Z,38.34
2024-03-30T10:41:10.171Z,38.70
2024-03-30T10:43:40.584Z,38.10
2024-03-30T10:46:13.818Z,37.50
2024-03-30T10:48:44.417Z,37.66
2024-03-30T10:51:15.797Z,37.73
2024-03-30T10:53:46.197Z,37.35
2024-03-30T10:56:20.289Z,37.69
2024-03-30T10:58:59.260Z,37.57
2024-03-30T11:01:31.359Z,37.42
2024-03-30T11:04:01.700Z,36.88
2024-03-30T11:06:34.157Z,36.51
2024-03-30T11:09:05.853Z,35.19
2024-03-30T11:11:37.427Z,35.63
2024-03-30T11:14:08.180Z,36.35
2024-03-30T11:16:45.862Z,35.89
2024-03-30T11:19:20.786Z,35.11
2024-03-30T11:22:08.896Z,34.78
2024-03-30T11:24:44.785Z,35.65
2024-03-30T11:27:17.611Z,35.20
2024-03-30T11:30:08.925Z,35.41
2024-03-30T11:32:43.098Z,35.94
2024-03-30T11:35:24.362Z,35.40
2024-03-30T11:37:56.520Z,35.98
2024-03-30T11:40:32.018Z,35.74
2024-03-30T11:43:06.321Z,35.39
2024-03-30T11:45:36.607Z,35.22
2024-03-30T11:48:08.277Z,35.14
2024-03-30T11:50:39.070Z,35.74
2024-03-30T11:53:17.199Z,35.57
2024-03-30T11:55:52.456Z,35.60
2024-03-30T11:58:25.486Z,35.49
2024-03-30T12:00:56.748Z,35.78
2024-03-30T12:03:29.873Z,36.50
2024-03-30T12:06:01.667Z,36.47
2024-03-30T12:08:33.497Z,35.90
2024-03-30T12:11:07.625Z,35.12
2024-03-30T12:13:39.781Z,33.75
2024-03-30T12:16:09.921Z,34.20
2024-03-30T12:18:41.296Z,34.66
2024-03-30T12:21:11.589Z,34.59
2024-03-30T12:23:43.003Z,34.34
2024-03-30T12:26:13.545Z,34.91
2024-03-30T12:28:45.331Z,35.58
2024-03-30T12:31:15.682Z,34.67
2024-03-30T12:33:47.173Z,34.17
2024-03-30T12:36:17.566Z,34.15
2024-03-30T12:38:49.211Z,33.61
2024-03-30T12:41:23.342Z,33.65
2024-03-30T12:44:03.628Z,33.62
2024-03-30T12:46:35.917Z,34.70
2024-03-30T12:49:06.424Z,34.70
2024-03-30T12:51:38.090Z,35.08
2024-03-30T12:54:09.606Z,35.07
2024-03-30T12:56:41.145Z,35.24
2024-03-30T12:59:11.470Z,35.29
2024-03-30T13:01:43.081Z,35.19
2024-03-30T13:04:13.594Z,34.69
2024-03-30T13:06:45.278Z,34.75
2024-03-30T13:09:22.253Z,34.07
2024-03-30T13:11:53.694Z,33.31
2024-03-30T13:14:24.072Z,32.33
2024-03-30T13:17:11.162Z,32.75
2024-03-30T13:19:42.843Z,32.49
2024-03-30T13:22:13.158Z,32.28
2024-03-30T13:24:44.898Z,32.22
2024-03-30T13:27:15.067Z,32.08
2024-03-30T13:29:47.760Z,32.03
2024-03-30T13:32:18.026Z,32.34
2024-03-30T13:34:49.596Z,32.64
2024-03-30T13:37:21.673Z,32.18
2024-03-30T13:39:53.287Z,31.47
2024-03-30T13:42:23.983Z,31.38
2024-03-30T13:44:55.365Z,31.86
2024-03-30T13:47:25.560Z,32.22
2024-03-30T13:49:57.037Z,31.51
2024-03-30T13:52:27.363Z,30.26
2024-03-30T13:54:58.749Z,29.17
2024-03-30T13:57:29.033Z,28.55
2024-03-30T14:00:00.468Z,29.28
2024-03-30T14:02:31.091Z,29.81
2024-03-30T14:05:02.729Z,30.25
2024-03-30T14:07:33.087Z,30.60
2024-03-30T14:10:05.828Z,30.16
2024-03-30T14:12:36.055Z,30.54
2024-03-30T14:15:07.752Z,31.05
2024-03-30T14:17:40.315Z,31.01
2024-03-30T14:20:11.966Z,31.00
2024-03-30T14:22:42.662Z,31.20
2024-03-30T14:25:14.033Z,30.56
2024-03-30T14:27:44.704Z,31.01
2024-03-30T14:30:16.487Z,31.52
2024-03-30T14:32:46.842Z,31.41
2024-03-30T14:35:19.846Z,31.55
2024-03-30T14:37:50.530Z,32.03
2024-03-30T14:40:22.159Z,32.37
2024-03-30T14:42:52.491Z,32.55
2024-03-30T14:45:24.460Z,32.56
2024-03-30T14:47:54.817Z,32.81
2024-03-30T14:50:26.450Z,32.60
2024-03-30T14:52:56.760Z,32.41
2024-03-30T14:55:28.292Z,32.82
2024-03-30T14:57:58.654Z,32.71
2024-03-30T15:00:30.918Z,32.63
2024-03-30T15:03:01.363Z,32.36
2024-03-30T15:05:33.166Z,32.54
2024-03-30T15:08:03.679Z,32.66
2024-03-30T15:10:35.172Z,32.48
2024-03-30T15:13:05.496Z,31.87
2024-03-30T15:15:37.112Z,31.04
2024-03-30T15:18:10.889Z,30.74
2024-03-30T15:20:44.216Z,31.23
2024-03-30T15:23:15.113Z,31.60
2024-03-30T15:25:47.142Z,31.93
2024-03-30T15:28:18.156Z,31.92
2024-03-30T15:31:08.253Z,32.11
2024-03-30T15:33:39.903Z,32.33
2024-03-30T15:36:10.273Z,32.89
2024-03-30T15:38:41.931Z,32.73
2024-03-30T15:41:13.029Z,32.44
2024-03-30T15:43:44.846Z,31.86
2024-03-30T15:46:18.144Z,31.43
2024-03-30T15:48:51.071Z,32.09
2024-03-30T15:51:21.862Z,32.25
2024-03-30T15:53:53.498Z,31.17
2024-03-30T15:56:23.824Z,31.86
2024-03-30T15:58:55.409Z,31.54
2024-03-30T16:01:25.703Z,31.75
2024-03-30T16:03:57.215Z,31.85
2024-03-30T16:06:27.600Z,32.20
2024-03-30T16:08:59.286Z,32.23
2024-03-30T16:11:32.354Z,32.60
2024-03-30T16:14:03.900Z,33.00
2024-03-30T16:16:34.005Z,33.39
2024-03-30T16:19:05.756Z,33.81
2024-03-30T16:21:35.907Z,33.89
2024-03-30T16:24:07.947Z,34.25
2024-03-30T16:26:38.079Z,34.75
2024-03-30T16:29:09.717Z,35.10
2024-03-30T16:31:39.796Z,35.31
2024-03-30T16:34:11.397Z,35.82
2024-03-30T16:36:41.625Z,36.02
2024-03-30T16:39:18.856Z,36.04
2024-03-30T16:41:52.194Z,36.17
2024-03-30T16:44:27.630Z,36.20
2024-03-30T16:47:02.420Z,36.39
2024-03-30T16:49:35.643Z,36.49
2024-03-30T16:52:06.414Z,36.46
2024-03-30T16:54:38.263Z,36.72
2024-03-30T16:57:09.062Z,36.94
2024-03-30T16:59:40.860Z,37.19
2024-03-30T17:02:11.114Z,37.36
2024-03-30T17:04:42.697Z,37.70
2024-03-30T17:07:12.804Z,38.13
2024-03-30T17:09:44.484Z,38.56
2024-03-30T17:12:16.197Z,38.88
2024-03-30T17:14:48.409Z,39.31
2024-03-30T17:17:19.908Z,39.45
2024-03-30T17:19:51.392Z,39.76
2024-03-30T17:22:21.709Z,39.96
2024-03-30T17:24:53.177Z,40.16
2024-03-30T17:27:23.767Z,40.27
2024-03-30T17:29:55.220Z,40.50
2024-03-30T17:32:25.594Z,40.55
2024-03-30T17:35:01.464Z,40.70
2024-03-30T17:37:33.510Z,40.84
2024-03-30T17:40:04.702Z,40.98
2024-03-30T17:42:36.362Z,41.05
2024-03-30T17:45:07.129Z,41.17
2024-03-30T17:47:39.147Z,41.24
2024-03-30T17:50:09.435Z,41.35
2024-03-30T17:52:41.076Z,41.36
2024-03-30T17:55:11.764Z,41.39
2024-03-30T17:57:45.671Z,41.50
2024-03-30T18:00:16.098Z,41.36
2024-03-30T18:02:49.909Z,41.18
2024-03-30T18:05:20.467Z,41.10
2024-03-30T18:07:52.491Z,40.92
2024-03-30T18:10:22.768Z,40.75
2024-03-30T18:12:54.718Z,40.70
2024-03-30T18:15:25.210Z,40.63
2024-03-30T18:17:57.387Z,40.59
2024-03-30T18:20:29.204Z,40.58
2024-03-30T18:23:01.843Z,40.62
2024-03-30T18:25:36.090Z,40.68
2024-03-30T18:28:10.672Z,40.71
2024-03-30T18:30:46.928Z,40.62
2024-03-30T18:33:19.549Z,40.69
2024-03-30T18:35:49.930Z,40.83
2024-03-30T18:38:21.500Z,40.81
2024-03-30T18:40:51.940Z,40.85
2024-03-30T18:43:23.552Z,41.00
2024-03-30T18:45:54.625Z,40.98
2024-03-30T18:48:26.344Z,41.09
2024-03-30T18:51:06.328Z,41.20
2024-03-30T18:53:39.180Z,41.34
2024-03-30T18:56:09.832Z,41.42
2024-03-30T18:58:45.859Z,41.52
2024-03-30T19:01:20.095Z,41.46
2024-03-30T19:03:56.736Z,41.51
2024-03-30T19:06:28.457Z,41.58
2024-03-30T19:08:58.729Z,41.60
2024-03-30T19:11:30.462Z,41.66
2024-03-30T19:14:00.996Z,41.75
2024-03-30T19:16:32.536Z,41.73
2024-03-30T19:19:04.601Z,41.83
2024-03-30T19:21:36.213Z,42.02
2024-03-30T19:24:06.771Z,42.06
2024-03-30T19:26:38.319Z,42.25
2024-03-30T19:29:09.116Z,42.34
2024-03-30T19:31:44.191Z,42.42
2024-03-30T19:34:17.740Z,42.51
2024-03-30T19:36:48.010Z,42.65
2024-03-30T19:39:19.903Z,42.81
2024-03-30T19:41:51.032Z,43.03
2024-03-30T19:44:22.545Z,43.06
2024-03-30T19:46:52.990Z,43.18
2024-03-30T19:49:27.163Z,43.26
2024-03-30T19:51:57.615Z,43.38
2024-03-30T19:54:29.107Z,43.39
2024-03-30T19:56:59.368Z,43.36
2024-03-30T19:59:30.755Z,43.43
2024-03-30T20:02:01.385Z,43.48
2024-03-30T20:04:32.799Z,43.55
2024-03-30T20:07:03.445Z,43.55
2024-03-30T20:09:36.370Z,43.57
2024-03-30T20:12:07.628Z,43.68
2024-03-30T20:14:39.020Z,43.76
2024-03-30T20:17:09.155Z,43.92
2024-03-30T20:19:40.583Z,44.04
2024-03-30T20:22:10.938Z,44.16
2024-03-30T20:24:42.337Z,44.28
2024-03-30T20:27:13.998Z,44.53
2024-03-30T20:29:45.447Z,44.69
2024-03-30T20:32:15.734Z,44.92
2024-03-30T20:34:47.269Z,45.17
2024-03-30T20:37:17.914Z,45.35
2024-03-30T20:39:51.057Z,45.50
2024-03-30T20:42:21.419Z,45.66
2024-03-30T20:44:53.094Z,45.88
2024-03-30T20:47:25.283Z,46.03
2024-03-30T20:49:56.968Z,46.18
2024-03-30T20:52:28.001Z,46.37
2024-03-30T20:54:59.707Z,46.39
2024-03-30T20:57:30.138Z,46.54
2024-03-30T21:00:02.207Z,46.64
2024-03-30T21:02:33.758Z,46.76
2024-03-30T21:05:05.653Z,46.93
2024-03-30T21:07:37.341Z,47.11
2024-03-30T21:10:09.087Z,47.26
2024-03-30T21:12:40.963Z,47.35
2024-03-30T21:15:12.695Z,47.50
2024-03-30T21:17:44.260Z,47.68
2024-03-30T21:20:15.781Z,47.83
2024-03-30T21:22:46.032Z,47.88
2024-03-30T21:25:17.894Z,48.01
2024-03-30T21:27:48.084Z,48.14
2024-03-30T21:30:19.700Z,48.19
2024-03-30T21:32:49.817Z,48.36
2024-03-30T21:35:22.735Z,48.47
2024-03-30T21:37:52.875Z,48.75
2024-03-30T21:40:24.772Z,49.00
2024-03-30T21:42:55.316Z,49.18
2024-03-30T21:45:27.084Z,49.30
2024-03-30T21:47:57.220Z,49.55
2024-03-30T21:50:28.811Z,49.84
2024-03-30T21:52:58.967Z,49.99
2024-03-30T21:55:30.473Z,50.06
2024-03-30T21:58:00.579Z,50.33
2024-03-30T22:00:32.183Z,50.49
2024-03-30T22:03:02.367Z,50.68
2024-03-30T22:05:38.222Z,50.82
2024-03-30T22:08:09.984Z,50.94
2024-03-30T22:10:41.091Z,51.13
2024-03-30T22:13:12.783Z,51.38
2024-03-30T22:15:43.288Z,51.41
2024-03-30T22:18:14.853Z,51.52
2024-03-30T22:20:45.383Z,51.64
2024-03-30T22:23:17.280Z,51.82
2024-03-30T22:25:48.059Z,51.95
2024-03-30T22:28:19.650Z,52.16
2024-03-30T22:30:49.977Z,52.21
2024-03-30T22:33:21.633Z,52.33
2024-03-30T22:35:52.647Z,52.42
2024-03-30T22:38:24.199Z,52.48
2024-03-30T22:41:01.863Z,52.75
2024-03-30T22:43:33.422Z,52.97
2024-03-30T22:46:03.935Z,52.78
2024-03-30T22:48:36.527Z,52.71
2024-03-30T22:51:07.470Z,52.56
2024-03-30T22:53:39.051Z,52.18
2024-03-30T22:56:12.659Z,51.89
2024-03-30T22:58:44.238Z,51.60
2024-03-30T23:01:14.792Z,51.34
2024-03-30T23:03:46.383Z,51.18
2024-03-30T23:06:16.541Z,51.13
2024-03-30T23:08:48.036Z,51.03
2024-03-30T23:11:18.174Z,51.01
2024-03-30T23:13:49.720Z,51.01
2024-03-30T23:16:19.903Z,50.97
2024-03-30T23:18:51.718Z,51.02
2024-03-30T23:21:21.832Z,51.10
2024-03-30T23:23:53.508Z,51.24
2024-03-30T23:26:23.767Z,51.29
2024-03-30T23:28:55.459Z,51.34
2024-03-30T23:31:26.993Z,51.51
2024-03-30T23:33:59.935Z,51.70
2024-03-30T23:36:30.285Z,51.83
2024-03-30T23:39:02.039Z,52.01
2024-03-30T23:41:32.302Z,52.11
2024-03-30T23:44:03.904Z,52.17
2024-03-30T23:46:34.184Z,52.10
2024-03-30T23:49:05.721Z,52.11
2024-03-30T23:51:36.159Z,52.11
2024-03-30T23:54:08.509Z,52.14
2024-03-30T23:56:39.540Z,52.28
2024-03-30T23:59:11.099Z,52.24
